Muriedas, Spain
Current Conditions -  °F | °C
As of 9:00 AM on Thursday 29 Jan 2015 (Local Time) from LEXJ Reporting Station
Broken Clouds Broken Clouds  
Wind Chill: 44°   Ceiling: 8100
Heat Index: 48°   Visibility: 6mi
Dew Point: 39°   Wind: 10mph
Humidity: 71%   Direction: 220°SW
Pressure: 29.91"   Gusts: NA
Location:  43.43°N, 3.86°W
Report Text: LEXJ 290800Z 22009KT 190V250 9999 FEW035 BKN081 09/04 Q1013
Loading
Personal Weather Stations






























Interactive Weather Map New forecast layout! Learn more

10-Day Weather Forecast

Advertisements
Track Severe Weather on mobile